sensor_id;sensor_type;location;lat;lon;timestamp;pressure;altitude;pressure_sealevel;temperature;humidity
78717;BME280;68045;50.042;14.432;2023-04-05T00:03:23;98996.81;;;-1.14;62.23
78717;BME280;68045;50.042;14.432;2023-04-05T00:07:25;98995.63;;;-1.20;63.05
78717;BME280;68045;50.042;14.432;2023-04-05T00:11:27;98989.59;;;-1.30;62.97
78717;BME280;68045;50.042;14.432;2023-04-05T00:15:32;98986.59;;;-1.35;63.75
78717;BME280;68045;50.042;14.432;2023-04-05T00:19:33;98982.38;;;-1.36;63.89
78717;BME280;68045;50.042;14.432;2023-04-05T00:23:36;98978.44;;;-1.40;64.48
78717;BME280;68045;50.042;14.432;2023-04-05T00:27:42;98975.97;;;-1.42;64.40
78717;BME280;68045;50.042;14.432;2023-04-05T00:31:43;98963.44;;;-1.66;65.27
78717;BME280;68045;50.042;14.432;2023-04-05T00:35:44;98966.03;;;-1.66;65.69
78717;BME280;68045;50.042;14.432;2023-04-05T00:39:45;98958.78;;;-1.72;65.41
78717;BME280;68045;50.042;14.432;2023-04-05T00:43:46;98957.72;;;-1.69;66.03
78717;BME280;68045;50.042;14.432;2023-04-05T00:47:47;98960.16;;;-1.68;65.65
78717;BME280;68045;50.042;14.432;2023-04-05T00:51:49;98955.25;;;-1.71;65.58
78717;BME280;68045;50.042;14.432;2023-04-05T00:55:51;98959.75;;;-1.73;65.39
78717;BME280;68045;50.042;14.432;2023-04-05T00:59:53;98951.44;;;-1.76;65.45
78717;BME280;68045;50.042;14.432;2023-04-05T01:04:00;98951.72;;;-1.79;65.73
78717;BME280;68045;50.042;14.432;2023-04-05T01:12:17;98947.63;;;-1.82;65.50
78717;BME280;68045;50.042;14.432;2023-04-05T01:16:18;98940.66;;;-1.91;66.31
78717;BME280;68045;50.042;14.432;2023-04-05T01:20:19;98929.78;;;-1.85;66.61
78717;BME280;68045;50.042;14.432;2023-04-05T01:29:26;98916.97;;;-1.96;66.92
78717;BME280;68045;50.042;14.432;2023-04-05T01:37:48;98927.47;;;-1.88;67.33
78717;BME280;68045;50.042;14.432;2023-04-05T01:42:00;98927.31;;;-1.96;66.66
78717;BME280;68045;50.042;14.432;2023-04-05T01:46:02;98923.34;;;-2.00;67.34
78717;BME280;68045;50.042;14.432;2023-04-05T01:50:05;98922.13;;;-2.06;67.41
78717;BME280;68045;50.042;14.432;2023-04-05T01:54:07;98922.13;;;-2.06;67.41
78717;BME280;68045;50.042;14.432;2023-04-05T01:58:09;98922.66;;;-2.12;68.18
78717;BME280;68045;50.042;14.432;2023-04-05T02:02:11;98916.69;;;-2.03;67.47
78717;BME280;68045;50.042;14.432;2023-04-05T02:06:12;98922.41;;;-2.09;67.45
78717;BME280;68045;50.042;14.432;2023-04-05T02:10:14;98922.13;;;-2.06;67.54
78717;BME280;68045;50.042;14.432;2023-04-05T02:14:15;98919.25;;;-2.12;67.46
78717;BME280;68045;50.042;14.432;2023-04-05T02:18:17;98919.53;;;-2.06;67.52
78717;BME280;68045;50.042;14.432;2023-04-05T02:22:22;98906.69;;;-2.27;68.94
78717;BME280;68045;50.042;14.432;2023-04-05T02:26:23;98900.56;;;-2.35;68.90
78717;BME280;68045;50.042;14.432;2023-04-05T02:30:24;98907.63;;;-2.37;69.20
78717;BME280;68045;50.042;14.432;2023-04-05T02:34:28;98897.84;;;-2.34;69.68
78717;BME280;68045;50.042;14.432;2023-04-05T02:38:32;98899.88;;;-2.37;68.94
78717;BME280;68045;50.042;14.432;2023-04-05T02:42:34;98898.91;;;-2.46;69.45
78717;BME280;68045;50.042;14.432;2023-04-05T02:46:36;98903.13;;;-2.45;69.91
78717;BME280;68045;50.042;14.432;2023-04-05T02:50:37;98898.34;;;-2.50;70.26
78717;BME280;68045;50.042;14.432;2023-04-05T02:54:38;98895.63;;;-2.48;69.20
78717;BME280;68045;50.042;14.432;2023-04-05T02:58:39;98891.41;;;-2.49;69.72
78717;BME280;68045;50.042;14.432;2023-04-05T03:02:41;98890.16;;;-2.55;69.39
78717;BME280;68045;50.042;14.432;2023-04-05T03:06:42;98895.97;;;-2.62;70.05
78717;BME280;68045;50.042;14.432;2023-04-05T03:10:47;98893.16;;;-2.59;70.48
78717;BME280;68045;50.042;14.432;2023-04-05T03:14:51;98887.25;;;-2.71;70.25
78717;BME280;68045;50.042;14.432;2023-04-05T03:18:56;98882.09;;;-2.71;70.39
78717;BME280;68045;50.042;14.432;2023-04-05T03:22:58;98884.97;;;-2.64;70.23
78717;BME280;68045;50.042;14.432;2023-04-05T03:27:04;98874.88;;;-2.77;71.23
78717;BME280;68045;50.042;14.432;2023-04-05T03:31:12;98886.28;;;-2.80;70.61
78717;BME280;68045;50.042;14.432;2023-04-05T03:35:13;98882.88;;;-2.80;71.60
78717;BME280;68045;50.042;14.432;2023-04-05T03:39:20;98884.59;;;-2.90;71.70
78717;BME280;68045;50.042;14.432;2023-04-05T03:43:22;98876.34;;;-2.84;71.81
78717;BME280;68045;50.042;14.432;2023-04-05T03:47:23;98877.97;;;-2.83;71.75
78717;BME280;68045;50.042;14.432;2023-04-05T03:51:26;98876.59;;;-2.87;71.02
78717;BME280;68045;50.042;14.432;2023-04-05T03:55:27;98883.78;;;-2.91;71.79
78717;BME280;68045;50.042;14.432;2023-04-05T03:59:29;98888.56;;;-2.86;71.27
78717;BME280;68045;50.042;14.432;2023-04-05T04:03:32;98885.34;;;-2.79;71.58
78717;BME280;68045;50.042;14.432;2023-04-05T04:07:34;98888.19;;;-2.82;71.29
78717;BME280;68045;50.042;14.432;2023-04-05T04:11:35;98886.44;;;-2.71;70.85
78717;BME280;68045;50.042;14.432;2023-04-05T04:15:39;98886.66;;;-2.84;70.70
78717;BME280;68045;50.042;14.432;2023-04-05T04:20:04;98886.63;;;-2.94;71.75
78717;BME280;68045;50.042;14.432;2023-04-05T04:24:21;98878.00;;;-3.04;71.18
78717;BME280;68045;50.042;14.432;2023-04-05T04:28:48;98872.53;;;-3.11;72.24
78717;BME280;68045;50.042;14.432;2023-04-05T04:33:06;98875.00;;;-3.09;71.88
78717;BME280;68045;50.042;14.432;2023-04-05T04:37:27;98888.72;;;-3.09;72.96
78717;BME280;68045;50.042;14.432;2023-04-05T04:41:48;98876.78;;;-3.10;72.65
78717;BME280;68045;50.042;14.432;2023-04-05T04:46:19;98891.19;;;-3.07;72.04
78717;BME280;68045;50.042;14.432;2023-04-05T04:50:43;98890.00;;;-3.03;72.47
78717;BME280;68045;50.042;14.432;2023-04-05T04:54:45;98883.44;;;-3.07;72.08
78717;BME280;68045;50.042;14.432;2023-04-05T04:58:47;98894.28;;;-3.13;72.23
78717;BME280;68045;50.042;14.432;2023-04-05T05:02:49;98886.22;;;-3.20;72.75
78717;BME280;68045;50.042;14.432;2023-04-05T05:06:52;98888.84;;;-3.10;73.54
78717;BME280;68045;50.042;14.432;2023-04-05T05:10:53;98888.47;;;-3.06;72.74
78717;BME280;68045;50.042;14.432;2023-04-05T05:14:54;98887.41;;;-3.03;72.34
78717;BME280;68045;50.042;14.432;2023-04-05T05:18:57;98886.31;;;-3.00;73.00
78717;BME280;68045;50.042;14.432;2023-04-05T05:23:02;98896.97;;;-2.94;72.31
78717;BME280;68045;50.042;14.432;2023-04-05T05:27:05;98883.53;;;-2.88;72.20
78717;BME280;68045;50.042;14.432;2023-04-05T05:31:06;98896.34;;;-2.77;70.94
78717;BME280;68045;50.042;14.432;2023-04-05T05:35:09;98895.97;;;-2.72;70.91
78717;BME280;68045;50.042;14.432;2023-04-05T05:39:11;98891.91;;;-2.65;70.62
78717;BME280;68045;50.042;14.432;2023-04-05T05:43:12;98895.75;;;-2.59;70.19
78717;BME280;68045;50.042;14.432;2023-04-05T05:47:13;98889.91;;;-2.52;69.67
78717;BME280;68045;50.042;14.432;2023-04-05T05:51:14;98894.03;;;-2.39;70.03
78717;BME280;68045;50.042;14.432;2023-04-05T05:55:15;98897.06;;;-2.25;69.10
78717;BME280;68045;50.042;14.432;2023-04-05T05:59:16;98899.66;;;-2.05;67.91
78717;BME280;68045;50.042;14.432;2023-04-05T06:03:18;98891.66;;;-2.02;67.69
78717;BME280;68045;50.042;14.432;2023-04-05T06:07:21;98899.00;;;-1.78;66.42
78717;BME280;68045;50.042;14.432;2023-04-05T06:11:22;98886.63;;;-1.84;67.29
78717;BME280;68045;50.042;14.432;2023-04-05T06:15:24;98892.91;;;-1.68;66.40
78717;BME280;68045;50.042;14.432;2023-04-05T06:19:25;98893.56;;;-1.56;66.15
78717;BME280;68045;50.042;14.432;2023-04-05T06:23:27;98898.88;;;-1.38;66.06
78717;BME280;68045;50.042;14.432;2023-04-05T06:27:28;98899.66;;;-1.28;65.27
78717;BME280;68045;50.042;14.432;2023-04-05T06:31:31;98897.16;;;-1.00;64.32
78717;BME280;68045;50.042;14.432;2023-04-05T06:35:32;98893.53;;;-0.80;64.24
78717;BME280;68045;50.042;14.432;2023-04-05T06:39:33;98894.91;;;-0.48;63.21
78717;BME280;68045;50.042;14.432;2023-04-05T06:43:34;98895.06;;;-0.05;62.35
78717;BME280;68045;50.042;14.432;2023-04-05T06:47:42;98890.72;;;0.32;61.53
78717;BME280;68045;50.042;14.432;2023-04-05T06:51:43;98888.50;;;0.63;59.49
78717;BME280;68045;50.042;14.432;2023-04-05T06:55:48;98891.38;;;1.03;58.38
78717;BME280;68045;50.042;14.432;2023-04-05T06:59:51;98893.38;;;1.35;57.56
78717;BME280;68045;50.042;14.432;2023-04-05T07:03:52;98884.44;;;1.46;56.26
78717;BME280;68045;50.042;14.432;2023-04-05T07:07:52;98896.53;;;1.55;56.73
78717;BME280;68045;50.042;14.432;2023-04-05T07:11:53;98884.13;;;1.83;55.27
78717;BME280;68045;50.042;14.432;2023-04-05T07:16:00;98893.41;;;1.94;55.75
78717;BME280;68045;50.042;14.432;2023-04-05T07:20:02;98891.16;;;2.07;54.52
78717;BME280;68045;50.042;14.432;2023-04-05T07:24:07;98873.22;;;2.04;55.37
78717;BME280;68045;50.042;14.432;2023-04-05T07:28:08;98880.28;;;2.20;54.29
78717;BME280;68045;50.042;14.432;2023-04-05T07:32:09;98873.63;;;2.26;53.93
78717;BME280;68045;50.042;14.432;2023-04-05T07:36:11;98878.81;;;2.34;53.63
78717;BME280;68045;50.042;14.432;2023-04-05T07:40:12;98874.56;;;2.73;54.16
78717;BME280;68045;50.042;14.432;2023-04-05T07:44:13;98869.03;;;2.85;52.13
78717;BME280;68045;50.042;14.432;2023-04-05T07:48:14;98868.13;;;3.17;51.54
78717;BME280;68045;50.042;14.432;2023-04-05T07:52:15;98870.44;;;3.51;51.49
78717;BME280;68045;50.042;14.432;2023-04-05T07:56:16;98879.50;;;4.02;49.16
78717;BME280;68045;50.042;14.432;2023-04-05T08:00:18;98874.84;;;4.12;47.88
78717;BME280;68045;50.042;14.432;2023-04-05T08:04:19;98868.16;;;4.56;46.96
78717;BME280;68045;50.042;14.432;2023-04-05T08:08:22;98856.31;;;4.83;46.28
78717;BME280;68045;50.042;14.432;2023-04-05T08:12:25;98862.88;;;5.67;44.53
78717;BME280;68045;50.042;14.432;2023-04-05T08:16:26;98861.50;;;6.22;40.22
78717;BME280;68045;50.042;14.432;2023-04-05T08:20:27;98863.19;;;6.51;39.29
78717;BME280;68045;50.042;14.432;2023-04-05T08:24:28;98860.94;;;7.39;38.54
78717;BME280;68045;50.042;14.432;2023-04-05T08:28:29;98853.53;;;8.23;36.89
78717;BME280;68045;50.042;14.432;2023-04-05T08:32:30;98858.84;;;8.37;33.92
78717;BME280;68045;50.042;14.432;2023-04-05T08:36:32;98857.22;;;8.49;33.93
78717;BME280;68045;50.042;14.432;2023-04-05T08:44:45;98851.56;;;10.08;30.01
78717;BME280;68045;50.042;14.432;2023-04-05T08:48:50;98848.31;;;10.44;28.87
78717;BME280;68045;50.042;14.432;2023-04-05T08:52:51;98846.63;;;11.54;27.56
78717;BME280;68045;50.042;14.432;2023-04-05T08:56:52;98843.44;;;12.54;26.20
78717;BME280;68045;50.042;14.432;2023-04-05T09:00:55;98839.78;;;13.02;25.88
78717;BME280;68045;50.042;14.432;2023-04-05T09:04:57;98831.03;;;12.78;24.68
78717;BME280;68045;50.042;14.432;2023-04-05T09:08:58;98830.31;;;13.53;23.49
78717;BME280;68045;50.042;14.432;2023-04-05T09:12:59;98829.41;;;14.67;21.60
78717;BME280;68045;50.042;14.432;2023-04-05T09:17:03;98831.28;;;15.44;20.91
78717;BME280;68045;50.042;14.432;2023-04-05T09:21:06;98824.88;;;17.17;17.73
78717;BME280;68045;50.042;14.432;2023-04-05T09:25:08;98836.28;;;19.73;16.92
78717;BME280;68045;50.042;14.432;2023-04-05T09:29:28;98826.16;;;17.67;17.43
78717;BME280;68045;50.042;14.432;2023-04-05T09:33:29;98826.16;;;15.59;19.20
78717;BME280;68045;50.042;14.432;2023-04-05T09:37:30;98826.03;;;13.81;20.39
78717;BME280;68045;50.042;14.432;2023-04-05T09:41:32;98830.81;;;17.29;17.83
78717;BME280;68045;50.042;14.432;2023-04-05T09:45:37;98826.00;;;22.27;13.73
78717;BME280;68045;50.042;14.432;2023-04-05T09:49:39;98830.66;;;20.14;15.05
78717;BME280;68045;50.042;14.432;2023-04-05T09:53:57;98818.72;;;24.70;10.61
78717;BME280;68045;50.042;14.432;2023-04-05T09:58:00;98811.69;;;26.05;9.74
78717;BME280;68045;50.042;14.432;2023-04-05T10:02:03;98818.25;;;24.45;10.86
78717;BME280;68045;50.042;14.432;2023-04-05T10:06:04;98806.75;;;24.93;10.84
78717;BME280;68045;50.042;14.432;2023-04-05T10:10:07;98809.31;;;25.95;9.54
78717;BME280;68045;50.042;14.432;2023-04-05T10:14:08;98804.72;;;28.33;8.50
78717;BME280;68045;50.042;14.432;2023-04-05T10:18:16;98804.34;;;30.58;7.13
78717;BME280;68045;50.042;14.432;2023-04-05T10:22:40;98805.69;;;29.68;7.81
78717;BME280;68045;50.042;14.432;2023-04-05T10:27:08;98799.75;;;27.14;8.63
78717;BME280;68045;50.042;14.432;2023-04-05T10:31:58;98801.31;;;22.57;11.70
78717;BME280;68045;50.042;14.432;2023-04-05T10:40:42;98797.03;;;17.55;16.16
78717;BME280;68045;50.042;14.432;2023-04-05T10:44:50;98795.16;;;16.98;16.29
78717;BME280;68045;50.042;14.432;2023-04-05T10:48:58;98789.34;;;21.55;13.07
78717;BME280;68045;50.042;14.432;2023-04-05T10:53:04;98791.94;;;19.91;12.86
78717;BME280;68045;50.042;14.432;2023-04-05T10:57:08;98783.75;;;22.92;11.47
78717;BME280;68045;50.042;14.432;2023-04-05T11:01:09;98781.63;;;27.85;7.78
78717;BME280;68045;50.042;14.432;2023-04-05T11:05:32;98777.19;;;31.76;5.97
78717;BME280;68045;50.042;14.432;2023-04-05T11:09:33;98768.31;;;33.55;5.20
78717;BME280;68045;50.042;14.432;2023-04-05T11:13:51;98770.00;;;29.58;6.78
78717;BME280;68045;50.042;14.432;2023-04-05T11:18:20;98765.78;;;25.31;9.54
78717;BME280;68045;50.042;14.432;2023-04-05T11:22:28;98775.25;;;22.39;11.85
78717;BME280;68045;50.042;14.432;2023-04-05T11:26:52;98768.94;;;20.24;13.38
78717;BME280;68045;50.042;14.432;2023-04-05T11:30:53;98765.41;;;18.40;15.69
78717;BME280;68045;50.042;14.432;2023-04-05T11:35:00;98765.03;;;16.60;16.84
78717;BME280;68045;50.042;14.432;2023-04-05T11:43:18;98758.13;;;14.80;19.15
78717;BME280;68045;50.042;14.432;2023-04-05T11:47:19;98758.69;;;14.15;19.89
78717;BME280;68045;50.042;14.432;2023-04-05T11:51:22;98764.69;;;13.77;21.11
78717;BME280;68045;50.042;14.432;2023-04-05T11:55:26;98764.06;;;13.18;20.61
78717;BME280;68045;50.042;14.432;2023-04-05T11:59:32;98761.56;;;13.00;21.13
78717;BME280;68045;50.042;14.432;2023-04-05T12:03:35;98758.00;;;12.94;21.04
78717;BME280;68045;50.042;14.432;2023-04-05T12:07:36;98755.75;;;13.14;20.70
78717;BME280;68045;50.042;14.432;2023-04-05T12:11:37;98744.28;;;13.94;21.30
78717;BME280;68045;50.042;14.432;2023-04-05T12:15:40;98743.34;;;14.68;20.40
78717;BME280;68045;50.042;14.432;2023-04-05T12:19:42;98743.16;;;14.74;19.39
78717;BME280;68045;50.042;14.432;2023-04-05T12:23:43;98744.50;;;17.71;16.15
78717;BME280;68045;50.042;14.432;2023-04-05T12:27:44;98733.84;;;18.42;16.08
78717;BME280;68045;50.042;14.432;2023-04-05T12:31:45;98742.91;;;18.72;16.82
78717;BME280;68045;50.042;14.432;2023-04-05T12:35:46;98734.56;;;17.51;17.18
78717;BME280;68045;50.042;14.432;2023-04-05T12:39:48;98734.75;;;16.34;17.79
78717;BME280;68045;50.042;14.432;2023-04-05T12:43:48;98734.25;;;14.64;18.97
78717;BME280;68045;50.042;14.432;2023-04-05T12:47:59;98736.91;;;13.96;22.43
78717;BME280;68045;50.042;14.432;2023-04-05T12:52:00;98737.69;;;14.30;20.37
78717;BME280;68045;50.042;14.432;2023-04-05T12:56:05;98735.03;;;14.30;20.19
78717;BME280;68045;50.042;14.432;2023-04-05T13:00:07;98739.97;;;14.05;20.71
78717;BME280;68045;50.042;14.432;2023-04-05T13:04:10;98732.50;;;13.57;20.89
78717;BME280;68045;50.042;14.432;2023-04-05T13:08:11;98726.28;;;13.23;21.64
78717;BME280;68045;50.042;14.432;2023-04-05T13:12:12;98730.69;;;12.82;22.14
78717;BME280;68045;50.042;14.432;2023-04-05T13:16:13;98712.78;;;12.37;22.93
78717;BME280;68045;50.042;14.432;2023-04-05T13:20:15;98715.88;;;12.57;23.34
78717;BME280;68045;50.042;14.432;2023-04-05T13:24:17;98714.19;;;13.03;20.98
78717;BME280;68045;50.042;14.432;2023-04-05T13:28:18;98713.78;;;13.63;21.50
78717;BME280;68045;50.042;14.432;2023-04-05T13:32:19;98708.97;;;14.27;21.17
78717;BME280;68045;50.042;14.432;2023-04-05T13:36:20;98704.47;;;14.45;21.70
78717;BME280;68045;50.042;14.432;2023-04-05T13:40:21;98701.56;;;14.63;21.27
78717;BME280;68045;50.042;14.432;2023-04-05T13:44:22;98691.94;;;14.07;20.50
78717;BME280;68045;50.042;14.432;2023-04-05T13:48:23;98692.94;;;13.55;23.16
78717;BME280;68045;50.042;14.432;2023-04-05T13:52:24;98700.84;;;12.98;22.84
78717;BME280;68045;50.042;14.432;2023-04-05T13:56:26;98702.03;;;12.79;23.78
78717;BME280;68045;50.042;14.432;2023-04-05T14:00:27;98690.03;;;13.00;23.44
78717;BME280;68045;50.042;14.432;2023-04-05T14:04:28;98683.69;;;13.01;23.58
78717;BME280;68045;50.042;14.432;2023-04-05T14:08:29;98687.09;;;12.73;23.52
78717;BME280;68045;50.042;14.432;2023-04-05T14:12:30;98695.41;;;12.06;23.86
78717;BME280;68045;50.042;14.432;2023-04-05T14:16:30;98690.03;;;11.71;25.02
78717;BME280;68045;50.042;14.432;2023-04-05T14:20:31;98690.16;;;11.46;26.40
78717;BME280;68045;50.042;14.432;2023-04-05T14:24:32;98688.09;;;11.18;27.75
78717;BME280;68045;50.042;14.432;2023-04-05T14:28:33;98687.91;;;11.01;26.79
78717;BME280;68045;50.042;14.432;2023-04-05T14:32:35;98681.56;;;10.72;26.62
78717;BME280;68045;50.042;14.432;2023-04-05T14:36:36;98678.28;;;10.33;28.05
78717;BME280;68045;50.042;14.432;2023-04-05T14:40:37;98681.78;;;10.27;27.88
78717;BME280;68045;50.042;14.432;2023-04-05T14:44:38;98682.56;;;10.53;27.80
78717;BME280;68045;50.042;14.432;2023-04-05T14:48:39;98682.50;;;10.78;25.75
78717;BME280;68045;50.042;14.432;2023-04-05T14:52:40;98681.94;;;11.24;26.07
78717;BME280;68045;50.042;14.432;2023-04-05T14:56:42;98679.28;;;11.54;25.85
78717;BME280;68045;50.042;14.432;2023-04-05T15:00:46;98677.00;;;11.69;24.89
78717;BME280;68045;50.042;14.432;2023-04-05T15:04:49;98671.09;;;11.14;26.74
78717;BME280;68045;50.042;14.432;2023-04-05T15:08:50;98684.56;;;10.57;26.80
78717;BME280;68045;50.042;14.432;2023-04-05T15:12:51;98678.44;;;10.38;27.55
78717;BME280;68045;50.042;14.432;2023-04-05T15:16:52;98673.72;;;10.22;27.99
78717;BME280;68045;50.042;14.432;2023-04-05T15:20:53;98675.03;;;9.88;28.24
78717;BME280;68045;50.042;14.432;2023-04-05T15:24:55;98667.75;;;9.83;28.88
78717;BME280;68045;50.042;14.432;2023-04-05T15:28:57;98667.97;;;9.82;28.29
78717;BME280;68045;50.042;14.432;2023-04-05T15:32:58;98664.63;;;9.68;29.23
78717;BME280;68045;50.042;14.432;2023-04-05T15:36:59;98664.88;;;9.60;30.01
78717;BME280;68045;50.042;14.432;2023-04-05T15:41:00;98658.72;;;9.41;29.87
78717;BME280;68045;50.042;14.432;2023-04-05T15:45:01;98665.13;;;9.20;30.09
78717;BME280;68045;50.042;14.432;2023-04-05T15:49:01;98661.66;;;8.82;31.01
78717;BME280;68045;50.042;14.432;2023-04-05T15:53:03;98665.63;;;8.46;30.25
78717;BME280;68045;50.042;14.432;2023-04-05T15:57:03;98664.22;;;8.37;31.69
78717;BME280;68045;50.042;14.432;2023-04-05T16:01:04;98671.47;;;8.35;31.40
78717;BME280;68045;50.042;14.432;2023-04-05T16:05:06;98669.06;;;8.53;31.47
78717;BME280;68045;50.042;14.432;2023-04-05T16:09:07;98666.59;;;8.58;30.88
78717;BME280;68045;50.042;14.432;2023-04-05T16:13:08;98667.59;;;8.57;30.29
78717;BME280;68045;50.042;14.432;2023-04-05T16:17:09;98673.03;;;8.69;30.97
78717;BME280;68045;50.042;14.432;2023-04-05T16:21:10;98669.00;;;8.60;30.48
78717;BME280;68045;50.042;14.432;2023-04-05T16:25:11;98661.34;;;8.51;32.03
78717;BME280;68045;50.042;14.432;2023-04-05T16:29:12;98668.84;;;8.35;32.32
78717;BME280;68045;50.042;14.432;2023-04-05T16:33:13;98665.00;;;8.31;32.86
78717;BME280;68045;50.042;14.432;2023-04-05T16:37:14;98668.28;;;8.19;33.06
78717;BME280;68045;50.042;14.432;2023-04-05T16:41:16;98674.56;;;8.05;33.86
78717;BME280;68045;50.042;14.432;2023-04-05T16:45:17;98666.66;;;7.79;34.28
78717;BME280;68045;50.042;14.432;2023-04-05T16:49:18;98677.78;;;7.81;34.24
78717;BME280;68045;50.042;14.432;2023-04-05T16:53:20;98667.06;;;7.62;35.35
78717;BME280;68045;50.042;14.432;2023-04-05T16:57:21;98667.25;;;7.61;34.31
78717;BME280;68045;50.042;14.432;2023-04-05T17:01:22;98665.78;;;7.32;34.25
78717;BME280;68045;50.042;14.432;2023-04-05T17:05:23;98670.81;;;7.13;35.99
78717;BME280;68045;50.042;14.432;2023-04-05T17:09:24;98671.78;;;6.99;35.93
78717;BME280;68045;50.042;14.432;2023-04-05T17:13:28;98674.84;;;6.68;35.02
78717;BME280;68045;50.042;14.432;2023-04-05T17:17:30;98671.19;;;6.56;35.69
78717;BME280;68045;50.042;14.432;2023-04-05T17:21:31;98667.03;;;6.40;37.70
78717;BME280;68045;50.042;14.432;2023-04-05T17:25:32;98669.25;;;6.37;36.54
78717;BME280;68045;50.042;14.432;2023-04-05T17:29:33;98678.09;;;6.29;38.10
78717;BME280;68045;50.042;14.432;2023-04-05T17:33:34;98682.84;;;6.19;37.56
78717;BME280;68045;50.042;14.432;2023-04-05T17:37:35;98677.44;;;6.20;38.95
78717;BME280;68045;50.042;14.432;2023-04-05T17:41:36;98674.22;;;5.97;38.49
78717;BME280;68045;50.042;14.432;2023-04-05T17:45:38;98675.53;;;5.86;39.95
78717;BME280;68045;50.042;14.432;2023-04-05T17:49:39;98684.75;;;5.82;40.00
78717;BME280;68045;50.042;14.432;2023-04-05T17:53:40;98690.53;;;5.77;41.67
78717;BME280;68045;50.042;14.432;2023-04-05T17:57:41;98694.50;;;5.67;39.27
78717;BME280;68045;50.042;14.432;2023-04-05T18:01:42;98690.19;;;5.59;40.08
78717;BME280;68045;50.042;14.432;2023-04-05T18:05:49;98697.38;;;5.50;41.73
78717;BME280;68045;50.042;14.432;2023-04-05T18:09:50;98700.97;;;5.49;41.39
78717;BME280;68045;50.042;14.432;2023-04-05T18:13:52;98701.78;;;5.50;40.34
78717;BME280;68045;50.042;14.432;2023-04-05T18:17:53;98703.00;;;5.33;40.66
78717;BME280;68045;50.042;14.432;2023-04-05T18:21:54;98709.78;;;5.27;40.69
78717;BME280;68045;50.042;14.432;2023-04-05T18:25:56;98722.00;;;5.20;40.75
78717;BME280;68045;50.042;14.432;2023-04-05T18:29:57;98719.75;;;5.17;41.45
78717;BME280;68045;50.042;14.432;2023-04-05T18:33:58;98718.25;;;5.08;43.32
78717;BME280;68045;50.042;14.432;2023-04-05T18:38:05;98733.03;;;5.15;43.69
78717;BME280;68045;50.042;14.432;2023-04-05T18:42:06;98738.06;;;5.17;42.87
78717;BME280;68045;50.042;14.432;2023-04-05T18:46:07;98734.91;;;5.21;43.76
78717;BME280;68045;50.042;14.432;2023-04-05T18:50:09;98742.19;;;5.26;42.33
78717;BME280;68045;50.042;14.432;2023-04-05T18:54:10;98746.44;;;5.27;43.57
78717;BME280;68045;50.042;14.432;2023-04-05T18:58:11;98752.53;;;5.34;42.95
78717;BME280;68045;50.042;14.432;2023-04-05T19:02:12;98740.53;;;5.40;42.93
78717;BME280;68045;50.042;14.432;2023-04-05T19:06:14;98749.19;;;5.40;42.31
78717;BME280;68045;50.042;14.432;2023-04-05T19:10:16;98748.84;;;5.43;42.92
78717;BME280;68045;50.042;14.432;2023-04-05T19:14:17;98749.06;;;5.48;43.03
78717;BME280;68045;50.042;14.432;2023-04-05T19:18:18;98752.78;;;5.54;42.33
78717;BME280;68045;50.042;14.432;2023-04-05T19:22:21;98747.53;;;5.54;42.13
78717;BME280;68045;50.042;14.432;2023-04-05T19:26:22;98753.16;;;5.51;43.23
78717;BME280;68045;50.042;14.432;2023-04-05T19:30:23;98756.50;;;5.45;42.82
78717;BME280;68045;50.042;14.432;2023-04-05T19:34:24;98759.84;;;5.39;43.52
78717;BME280;68045;50.042;14.432;2023-04-05T19:38:26;98752.00;;;5.39;42.35
78717;BME280;68045;50.042;14.432;2023-04-05T19:42:27;98767.19;;;5.29;43.67
78717;BME280;68045;50.042;14.432;2023-04-05T19:46:28;98758.47;;;5.21;44.37
78717;BME280;68045;50.042;14.432;2023-04-05T19:54:31;98763.44;;;5.02;44.07
78717;BME280;68045;50.042;14.432;2023-04-05T19:58:32;98760.66;;;4.88;44.12
78717;BME280;68045;50.042;14.432;2023-04-05T20:02:35;98763.44;;;4.72;45.47
78717;BME280;68045;50.042;14.432;2023-04-05T20:06:40;98762.81;;;4.70;45.69
78717;BME280;68045;50.042;14.432;2023-04-05T20:10:42;98763.78;;;4.69;45.25
78717;BME280;68045;50.042;14.432;2023-04-05T20:14:51;98762.00;;;4.69;46.51
78717;BME280;68045;50.042;14.432;2023-04-05T20:18:56;98759.66;;;4.75;45.50
78717;BME280;68045;50.042;14.432;2023-04-05T20:22:58;98759.75;;;4.81;45.81
78717;BME280;68045;50.042;14.432;2023-04-05T20:26:59;98755.75;;;4.85;45.42
78717;BME280;68045;50.042;14.432;2023-04-05T20:31:01;98756.03;;;4.90;45.52
78717;BME280;68045;50.042;14.432;2023-04-05T20:35:06;98756.31;;;4.95;44.88
78717;BME280;68045;50.042;14.432;2023-04-05T20:39:08;98750.72;;;4.99;46.30
78717;BME280;68045;50.042;14.432;2023-04-05T20:43:09;98754.78;;;5.01;45.54
78717;BME280;68045;50.042;14.432;2023-04-05T20:47:10;98749.09;;;4.97;46.01
78717;BME280;68045;50.042;14.432;2023-04-05T20:51:11;98751.00;;;4.89;45.57
78717;BME280;68045;50.042;14.432;2023-04-05T20:55:12;98755.41;;;4.88;46.20
78717;BME280;68045;50.042;14.432;2023-04-05T20:59:14;98750.09;;;4.96;45.06
78717;BME280;68045;50.042;14.432;2023-04-05T21:03:20;98752.63;;;4.90;45.70
78717;BME280;68045;50.042;14.432;2023-04-05T21:07:21;98748.56;;;4.87;46.19
78717;BME280;68045;50.042;14.432;2023-04-05T21:11:22;98747.22;;;4.77;46.48
78717;BME280;68045;50.042;14.432;2023-04-05T21:15:23;98755.94;;;4.84;46.93
78717;BME280;68045;50.042;14.432;2023-04-05T21:19:30;98751.53;;;4.69;47.02
78717;BME280;68045;50.042;14.432;2023-04-05T21:23:32;98746.22;;;4.63;47.13
78717;BME280;68045;50.042;14.432;2023-04-05T21:27:33;98751.34;;;4.71;46.91
78717;BME280;68045;50.042;14.432;2023-04-05T21:31:34;98753.78;;;4.58;47.20
78717;BME280;68045;50.042;14.432;2023-04-05T21:35:35;98751.91;;;4.52;47.73
78717;BME280;68045;50.042;14.432;2023-04-05T21:39:36;98749.28;;;4.37;48.37
78717;BME280;68045;50.042;14.432;2023-04-05T21:43:37;98750.94;;;4.30;48.18
78717;BME280;68045;50.042;14.432;2023-04-05T21:47:38;98749.06;;;4.24;49.34
78717;BME280;68045;50.042;14.432;2023-04-05T21:51:40;98752.56;;;4.16;49.63